< < Back
Terminal Aerodrome Forecast


Current Version              Previous Versions:   1  2  3  4  5  6  7  8  9  

Terminal Aerodrome Forecast

880
FTUS42 KGSP 261600 AAC
TAFAND
TAF AMD
KAND 261600Z 2616/2712 29005KT P6SM SCT025
      TEMPO 2616/2618 BKN025
     FM261800 27008KT P6SM SCT040
     FM270200 24006KT P6SM BKN080=

Latest METAR

522
SAUS70 KWBC 270800
MTRAND
METAR KAND 270756Z AUTO 20004KT 10SM CLR 05/M01 A3000 RMK AO2 SLP157
T00501011


USA.gov is the U.S. government's official web portal to all federal, state and local government web resources and services.